OAIX

Details ICAO OAIX (BPM)
Name BAGRAM
Region Afghanistan
Timezone Asia/Kabul (UTC+4.5)
Plans Departing 22
Arriving 37
Stats Elevation 4,895 ft / 1,492 m (AMSL)
Location 34.946139° 69.264972°
Runways 1
Magnetic Variation 3.269° E
Sunrise 2017-12-15 02:24:43 UTC / 2017-12-15 06:54:43 Local
Sunset 2017-12-15 12:14:05 UTC / 2017-12-15 16:44:05 Local
Advertisement - Login to hide

Runways

ID Width Length Bearing (true) Bearing (mag) Surface Threshold Offset Overrun Length
03 180 ft / 55 m 9,865 ft / 3,007 m 28.90° 25.63° Concrete 0 ft / 0 m 0 ft / 0 m
21 180 ft / 55 m 9,865 ft / 3,007 m 208.91° 205.64° Concrete 0 ft / 0 m 0 ft / 0 m

Map

Weather


0- 5 10 15 20 25 30 35+ Temperature / ° C

Clouds and Precipitation
Forecast for 2017-12-15 06:00 UTC. Updated an hour ago

Ground ~20,000 ft ~40,000 ft Winds

METAR

OAIX 150158Z 00000KT 8000 BR BKN028 M03/M04 A3025 RMK AO2A SLP239 T10301039

TAF

TAF AMD OAIX 142140Z 1421/1521 21006KT 8000 -SN BR FEW030 BKN050 620704 QNH3016INS BECMG 1507/1508 VRB06KT 9999 NSW FEW120 QNH3008INS BECMG 1513/1514 32006KT 9999 FEW100 SCT130 QNH3010INS TX05/1509Z TNM06/1501Z

Frequencies

Recorded 134.25 MHz ATIS
Tower 118.50 MHz TWR
Ground 125.90 MHz GND
Approach 133.35 MHz APP
Warning: Do not use this data for real-world aviation or navigation. No guarantee of current accuracy is given.